Kea — 9HA2207 — position and weather

sailwx.info

Track history (hours):
 
Tides and Currents Weather Stations Pressure Air Temp Water Temp Dewpoint Dewpoint Depression Visibility Wind Speed Wind Dir Waves Ship Positions

Kea

Last reported at 2017-Sep-08 11:54 UTC. Time now 2017-Oct-17 01:15 UTC.
Position S 33°17' E 028°56'.
Warning: this ship's position is 38 days out of date.

Length 225 m; draft 13 m.

Type: Cargo ship. MMSI: 248150000.

Date/timePositionNaut miles runAvg speedWind from/ knotsBaromVisibWave heightAir tempDewpointWater temp
2017-Sep-08 11:54S 33°17' E 028°56'511.5
2017-Sep-08 11:30S 33°15' E 029°01'811.7
2017-Sep-08 10:49S 33°12' E 029°10'411.5
2017-Sep-08 10:29S 33°10' E 029°14'611.5
2017-Sep-08 09:57S 33°08' E 029°21'511.5
2017-Sep-08 09:29S 33°05' E 029°27'8410.8
2017-Sep-08 01:39S 32°31' E 030°58'311.2
2017-Sep-08 01:21S 32°30' E 031°02'411.4
2017-Sep-08 01:00S 32°28' E 031°07'611.3
2017-Sep-08 00:26S 32°25' E 031°13'511.3
2017-Sep-08 00:00S 32°23' E 031°19'7111.3
2017-Sep-07 17:43S 31°55' E 032°35'611.4
2017-Sep-07 17:14S 31°53' E 032°41'411.1
2017-Sep-07 16:55S 31°51' E 032°45'1311.0
2017-Sep-07 15:46S 31°46' E 032°59'311.0
2017-Sep-07 15:29S 31°45' E 033°02'511.1
2017-Sep-07 15:00S 31°42' E 033°08'611.4
2017-Sep-07 14:30S 31°40' E 033°14'612.0
2017-Sep-07 14:00S 31°38' E 033°20'611.7
2017-Sep-07 13:30S 31°35' E 033°26'611.7
2017-Sep-07 13:00S 31°33' E 033°33'611.4
2017-Sep-07 12:29S 31°31' E 033°39'511.0
2017-Sep-07 12:00S 31°28' E 033°45'510.5
2017-Sep-07 11:30S 31°26' E 033°50'510.1
2017-Sep-07 11:00S 31°24' E 033°56'510.0
2017-Sep-07 10:30S 31°22' E 034°01'510.2
2017-Sep-07 10:00S 31°20' E 034°07'510.5
2017-Sep-07 09:30S 31°18' E 034°12'510.9
2017-Sep-07 09:00S 31°16' E 034°18'611.2
2017-Sep-07 08:30S 31°13' E 034°24'510.9
2017-Sep-07 08:00S 31°11' E 034°30'611.0
2017-Sep-07 07:30S 31°09' E 034°36'510.8
2017-Sep-07 07:00S 31°07' E 034°42'510.8
2017-Sep-07 06:30S 31°04' E 034°47'510.9
2017-Sep-07 06:00S 31°02' E 034°53'611.1
2017-Sep-07 05:29S 31°00' E 034°59'510.7
2017-Sep-07 05:00S 30°58' E 035°05'610.8
2017-Sep-07 04:28S 30°56' E 035°11'710.9
2017-Sep-07 03:48S 30°53' E 035°19'511.1
2017-Sep-07 03:22S 30°51' E 035°24'411.2
2017-Sep-07 02:59S 30°49' E 035°28'711.3
2017-Sep-07 02:22S 30°46' E 035°36'43111.0
2017-Sep-05 11:20S 27°51' E 043°07'  
Track history (hours):
 
Tides and Currents Weather Stations Pressure Air Temp Water Temp Dewpoint Dewpoint Depression Visibility Wind Speed Wind Dir Waves Ship Positions

Kea

Last reported at 2017-Sep-08 11:54 UTC. Time now 2017-Oct-17 01:15 UTC.
Position S 33°17' E 028°56'.
Warning: this ship's position is 38 days out of date.

Length 225 m; draft 13 m.

Type: Cargo ship. MMSI: 248150000.

Date/timePositionNaut miles runAvg speedWind from/ knotsBaromVisibWave heightAir tempDewpointWater temp
2017-Sep-08 11:54S 33°17' E 028°56'511.5
2017-Sep-08 11:30S 33°15' E 029°01'811.7
2017-Sep-08 10:49S 33°12' E 029°10'411.5
2017-Sep-08 10:29S 33°10' E 029°14'611.5
2017-Sep-08 09:57S 33°08' E 029°21'511.5
2017-Sep-08 09:29S 33°05' E 029°27'8410.8
2017-Sep-08 01:39S 32°31' E 030°58'311.2
2017-Sep-08 01:21S 32°30' E 031°02'411.4
2017-Sep-08 01:00S 32°28' E 031°07'611.3
2017-Sep-08 00:26S 32°25' E 031°13'511.3
2017-Sep-08 00:00S 32°23' E 031°19'7111.3
2017-Sep-07 17:43S 31°55' E 032°35'611.4
2017-Sep-07 17:14S 31°53' E 032°41'411.1
2017-Sep-07 16:55S 31°51' E 032°45'1311.0
2017-Sep-07 15:46S 31°46' E 032°59'311.0
2017-Sep-07 15:29S 31°45' E 033°02'511.1
2017-Sep-07 15:00S 31°42' E 033°08'611.4
2017-Sep-07 14:30S 31°40' E 033°14'612.0
2017-Sep-07 14:00S 31°38' E 033°20'611.7
2017-Sep-07 13:30S 31°35' E 033°26'611.7
2017-Sep-07 13:00S 31°33' E 033°33'611.4
2017-Sep-07 12:29S 31°31' E 033°39'511.0
2017-Sep-07 12:00S 31°28' E 033°45'510.5
2017-Sep-07 11:30S 31°26' E 033°50'510.1
2017-Sep-07 11:00S 31°24' E 033°56'510.0
2017-Sep-07 10:30S 31°22' E 034°01'510.2
2017-Sep-07 10:00S 31°20' E 034°07'510.5
2017-Sep-07 09:30S 31°18' E 034°12'510.9
2017-Sep-07 09:00S 31°16' E 034°18'611.2
2017-Sep-07 08:30S 31°13' E 034°24'510.9
2017-Sep-07 08:00S 31°11' E 034°30'611.0
2017-Sep-07 07:30S 31°09' E 034°36'510.8
2017-Sep-07 07:00S 31°07' E 034°42'510.8
2017-Sep-07 06:30S 31°04' E 034°47'510.9
2017-Sep-07 06:00S 31°02' E 034°53'611.1
2017-Sep-07 05:29S 31°00' E 034°59'510.7
2017-Sep-07 05:00S 30°58' E 035°05'610.8
2017-Sep-07 04:28S 30°56' E 035°11'710.9
2017-Sep-07 03:48S 30°53' E 035°19'511.1
2017-Sep-07 03:22S 30°51' E 035°24'411.2
2017-Sep-07 02:59S 30°49' E 035°28'711.3
2017-Sep-07 02:22S 30°46' E 035°36'43111.0
2017-Sep-05 11:20S 27°51' E 043°07'  

Dump ship's entire track history